createdAt,value
2022-08-16T00:02:31.993Z,99860.22
2022-08-16T00:05:00.304Z,99857.91
2022-08-16T00:07:29.142Z,99862.03
2022-08-16T00:09:59.804Z,99861.09
2022-08-16T00:12:31.408Z,99868.53
2022-08-16T00:15:02.445Z,99863.25
2022-08-16T00:17:30.426Z,99875.13
2022-08-16T00:20:24.178Z,99873.16
2022-08-16T00:22:53.824Z,99870.69
2022-08-16T00:26:33.626Z,99876.28
2022-08-16T00:28:14.801Z,99873.47
2022-08-16T00:30:43.222Z,99871.81
2022-08-16T00:33:13.235Z,99874.47
2022-08-16T00:35:41.505Z,99882.06
2022-08-16T00:38:10.037Z,99879.75
2022-08-16T00:41:01.647Z,99878.28
2022-08-16T00:43:42.442Z,99880.25
2022-08-16T00:46:22.333Z,99879.00
2022-08-16T00:49:02.811Z,99890.38
2022-08-16T00:51:31.686Z,99885.91
2022-08-16T00:54:01.210Z,99885.91
2022-08-16T00:56:57.131Z,99881.84
2022-08-16T00:59:25.917Z,99888.72
2022-08-16T01:01:54.712Z,99887.06
2022-08-16T01:04:29.866Z,99894.00
2022-08-16T01:07:02.134Z,99884.78
2022-08-16T01:09:33.242Z,99882.47
2022-08-16T01:12:08.672Z,99889.41
2022-08-16T01:14:44.434Z,99881.19
2022-08-16T01:17:17.392Z,99885.16
2022-08-16T01:19:49.417Z,99869.16
2022-08-16T01:22:49.884Z,99873.78
2022-08-16T01:25:17.902Z,99869.34
2022-08-16T01:27:53.429Z,99871.97
2022-08-16T01:30:26.554Z,99875.78
2022-08-16T01:33:02.470Z,99869.75
2022-08-16T01:35:36.565Z,99869.66
2022-08-16T01:38:19.395Z,99878.56
2022-08-16T01:40:51.042Z,99874.41
2022-08-16T01:43:19.322Z,99884.75
2022-08-16T01:45:47.709Z,99877.50
2022-08-16T01:48:28.856Z,99886.69
2022-08-16T01:51:08.907Z,99889.03
2022-08-16T01:53:44.428Z,99884.25
2022-08-16T01:56:24.946Z,99880.31
2022-08-16T01:58:54.989Z,99888.06
2022-08-16T02:01:26.212Z,99881.63
2022-08-16T02:03:58.674Z,99885.63
2022-08-16T02:06:46.699Z,99891.22
2022-08-16T02:09:18.114Z,99903.72
2022-08-16T02:11:52.977Z,99888.38
2022-08-16T02:14:26.277Z,99886.28
2022-08-16T02:16:56.255Z,99890.38
2022-08-16T02:19:25.269Z,99885.91
2022-08-16T02:22:33.592Z,99889.22
2022-08-16T02:25:05.442Z,99886.56
2022-08-16T02:27:35.317Z,99884.75
2022-08-16T02:30:08.073Z,99889.22
2022-08-16T02:32:51.208Z,99881.47
2022-08-16T02:35:26.394Z,99888.91
2022-08-16T02:37:56.337Z,99885.31
2022-08-16T02:40:30.198Z,99890.59
2022-08-16T02:43:00.793Z,99888.47
2022-08-16T02:45:30.862Z,99888.47
2022-08-16T02:48:29.024Z,99889.63
2022-08-16T02:50:53.707Z,99882.72
2022-08-16T02:53:23.829Z,99887.50
2022-08-16T02:55:52.562Z,99894.78
2022-08-16T02:58:25.229Z,99897.88
2022-08-16T03:00:53.898Z,99899.22
2022-08-16T03:03:25.027Z,99901.03
2022-08-16T03:05:53.538Z,99905.50
2022-08-16T03:08:50.533Z,99903.69
2022-08-16T03:11:16.292Z,99914.69
2022-08-16T03:13:51.249Z,99913.25
2022-08-16T03:16:37.878Z,99907.16
2022-08-16T03:19:07.361Z,99911.75
2022-08-16T03:21:38.289Z,99919.00
2022-08-16T03:24:29.445Z,99914.91
2022-08-16T03:26:57.953Z,99902.06
2022-08-16T03:29:30.392Z,99908.78
2022-08-16T03:31:59.608Z,99909.78
2022-08-16T03:34:30.869Z,99907.84
2022-08-16T03:37:00.182Z,99907.19
2022-08-16T03:39:28.732Z,99920.03
2022-08-16T03:41:59.684Z,99916.72
2022-08-16T03:44:43.826Z,99915.25
2022-08-16T03:47:19.023Z,99921.19
2022-08-16T03:49:51.521Z,99918.88
2022-08-16T03:52:20.596Z,99916.09
2022-08-16T03:54:58.203Z,99912.97
2022-08-16T03:57:31.632Z,99911.31
2022-08-16T04:00:35.125Z,99919.38
2022-08-16T04:03:07.666Z,99914.09
2022-08-16T04:05:38.143Z,99927.25
2022-08-16T04:08:23.774Z,99931.53
2022-08-16T04:10:54.859Z,99927.22
2022-08-16T04:14:00.680Z,99922.44
2022-08-16T04:16:26.142Z,99941.19
2022-08-16T04:19:02.808Z,99936.41
2022-08-16T04:21:33.582Z,99931.44
2022-08-16T04:24:03.036Z,99942.78
2022-08-16T04:26:32.647Z,99942.84
2022-08-16T04:29:16.892Z,99944.22
2022-08-16T04:31:55.725Z,99938.53
2022-08-16T04:34:27.086Z,99929.09
2022-08-16T04:36:55.145Z,99943.19
2022-08-16T04:39:36.516Z,99942.94
2022-08-16T04:42:13.379Z,99945.16
2022-08-16T04:44:54.066Z,99942.44
2022-08-16T04:47:33.424Z,99948.41
2022-08-16T04:50:05.905Z,99949.38
2022-08-16T04:52:36.320Z,99948.53
2022-08-16T04:55:07.556Z,99945.22
2022-08-16T04:57:36.901Z,99945.22
2022-08-16T05:00:31.932Z,99936.88
2022-08-16T05:02:58.866Z,99950.63
2022-08-16T05:05:33.042Z,99945.66
2022-08-16T05:08:28.098Z,99955.34
2022-08-16T05:11:00.274Z,99950.63
2022-08-16T05:13:41.267Z,99956.06
2022-08-16T05:16:11.807Z,99956.44
2022-08-16T05:18:41.473Z,99950.53
2022-08-16T05:21:12.568Z,99958.66
2022-08-16T05:23:41.100Z,99955.53
2022-08-16T05:26:19.987Z,99952.81
2022-08-16T05:28:55.305Z,99947.28
2022-08-16T05:31:24.299Z,99945.06
2022-08-16T05:34:00.219Z,99940.84
2022-08-16T05:36:33.837Z,99943.53
2022-08-16T05:39:03.758Z,99950.34
2022-08-16T05:41:31.773Z,99959.00
2022-08-16T05:44:05.276Z,99959.22
2022-08-16T05:46:33.590Z,99961.09
2022-08-16T05:49:09.024Z,99968.00
2022-08-16T05:51:40.075Z,99971.72
2022-08-16T05:54:11.206Z,99967.63
2022-08-16T05:56:40.238Z,99964.38
2022-08-16T05:59:11.532Z,99964.75
2022-08-16T06:01:40.482Z,99968.38
2022-08-16T06:04:13.434Z,99968.78
2022-08-16T06:06:58.906Z,99968.97
2022-08-16T06:09:42.878Z,99962.19
2022-08-16T06:12:27.362Z,99955.63
2022-08-16T06:14:59.338Z,99959.56
2022-08-16T06:17:41.019Z,99952.53
2022-08-16T06:20:23.198Z,99956.44
2022-08-16T06:22:58.708Z,99969.88
2022-08-16T06:25:36.159Z,99965.81
2022-08-16T06:28:09.403Z,99977.97
2022-08-16T06:30:43.498Z,99975.88
2022-08-16T06:33:12.781Z,99974.69
2022-08-16T06:35:42.305Z,99963.44
2022-08-16T06:38:34.044Z,99961.25
2022-08-16T06:40:58.953Z,99969.28
2022-08-16T06:43:27.331Z,99965.34
2022-08-16T06:45:56.181Z,99959.00
2022-08-16T06:48:32.466Z,99957.63
2022-08-16T06:51:03.738Z,99954.69
2022-08-16T06:53:35.538Z,99950.22
2022-08-16T06:56:14.176Z,99953.91
2022-08-16T06:58:52.279Z,99949.75
2022-08-16T07:01:34.422Z,99963.25
2022-08-16T07:04:11.849Z,99963.50
2022-08-16T07:06:42.991Z,99952.59
2022-08-16T07:09:12.190Z,99948.53
2022-08-16T07:11:45.672Z,99948.00
2022-08-16T07:14:24.165Z,99948.94
2022-08-16T07:16:53.771Z,99957.44
2022-08-16T07:19:21.857Z,99960.13
2022-08-16T07:22:36.562Z,99959.88
2022-08-16T07:24:59.234Z,99954.41
2022-08-16T07:27:27.418Z,99955.56
2022-08-16T07:29:56.354Z,99961.25
2022-08-16T07:32:29.529Z,99955.34
2022-08-16T07:34:59.731Z,99945.72
2022-08-16T07:37:29.130Z,99953.59
2022-08-16T07:39:57.801Z,99951.69
2022-08-16T07:42:34.995Z,99948.84
2022-08-16T07:45:14.105Z,99957.31
2022-08-16T07:47:45.596Z,99957.06
2022-08-16T07:50:57.137Z,99946.97
2022-08-16T07:53:08.942Z,99944.56
2022-08-16T07:55:47.709Z,99946.66
2022-08-16T07:58:18.483Z,99942.19
2022-08-16T08:01:10.054Z,99937.31
2022-08-16T08:03:42.529Z,99938.75
2022-08-16T08:06:13.554Z,99940.59
2022-08-16T08:08:51.617Z,99941.56
2022-08-16T08:11:23.633Z,99937.34
2022-08-16T08:13:53.601Z,99934.47
2022-08-16T08:16:30.520Z,99932.47
2022-08-16T08:19:01.070Z,99934.09
2022-08-16T08:22:01.519Z,99933.38
2022-08-16T08:24:21.840Z,99935.38
2022-08-16T08:26:50.629Z,99925.19
2022-08-16T08:29:22.628Z,99937.91
2022-08-16T08:31:53.658Z,99938.84
2022-08-16T08:34:23.106Z,99945.22
2022-08-16T08:36:54.559Z,99939.06
2022-08-16T08:39:24.468Z,99942.50
2022-08-16T08:41:53.624Z,99935.59
2022-08-16T08:44:29.883Z,99935.56
2022-08-16T08:47:01.799Z,99929.22
2022-08-16T08:49:46.500Z,99945.97
2022-08-16T08:52:34.684Z,99935.94
2022-08-16T08:55:10.509Z,99940.78
2022-08-16T08:57:40.634Z,99934.53
2022-08-16T09:00:13.714Z,99934.50
2022-08-16T09:02:51.746Z,99931.75
2022-08-16T09:05:22.395Z,99933.91
2022-08-16T09:08:00.768Z,99932.81
2022-08-16T09:10:32.592Z,99936.16
2022-08-16T09:13:02.421Z,99937.66
2022-08-16T09:15:33.218Z,99938.41
2022-08-16T09:18:27.057Z,99927.88
2022-08-16T09:20:59.007Z,99938.16
2022-08-16T09:23:28.830Z,99933.00
2022-08-16T09:25:58.415Z,99931.00
2022-08-16T09:29:14.043Z,99937.56
2022-08-16T09:31:16.074Z,99933.63
2022-08-16T09:33:45.302Z,99941.72
2022-08-16T09:36:32.327Z,99943.44
2022-08-16T09:39:03.434Z,99927.84
2022-08-16T09:41:33.747Z,99929.13
2022-08-16T09:45:09.198Z,99931.09
2022-08-16T09:46:54.859Z,99924.69
2022-08-16T09:49:26.406Z,99930.09
2022-08-16T09:52:06.302Z,99928.22
2022-08-16T09:54:44.580Z,99918.34
2022-08-16T09:57:14.969Z,99926.00
2022-08-16T09:59:43.551Z,99921.44
2022-08-16T10:02:25.997Z,99917.16
2022-08-16T10:04:57.213Z,99913.97
2022-08-16T10:07:26.390Z,99923.41
2022-08-16T10:10:12.906Z,99920.69
2022-08-16T10:13:06.523Z,99914.97
2022-08-16T10:15:37.143Z,99905.06
2022-08-16T10:18:46.053Z,99911.75
2022-08-16T10:20:56.366Z,99909.09
2022-08-16T10:23:26.442Z,99916.94
2022-08-16T10:27:21.945Z,99916.94
2022-08-16T10:28:46.230Z,99916.69
2022-08-16T10:31:43.633Z,99904.53
2022-08-16T10:34:31.872Z,99917.47
2022-08-16T10:36:55.110Z,99914.53
2022-08-16T10:39:23.266Z,99916.66
2022-08-16T10:41:52.470Z,99903.97
2022-08-16T10:44:21.886Z,99903.44
2022-08-16T10:46:50.372Z,99904.78
2022-08-16T10:49:18.513Z,99908.56
2022-08-16T10:52:03.059Z,99904.25
2022-08-16T10:54:58.422Z,99909.81
2022-08-16T10:57:24.520Z,99899.94
2022-08-16T10:59:57.793Z,99901.75
2022-08-16T11:02:58.460Z,99906.09
2022-08-16T11:05:17.846Z,99901.81
2022-08-16T11:07:55.309Z,99899.66
2022-08-16T11:13:57.350Z,99899.41
2022-08-16T11:16:27.640Z,99906.00
2022-08-16T11:19:06.303Z,99896.06
2022-08-16T11:24:41.453Z,99900.16
2022-08-16T11:27:23.364Z,99890.31
2022-08-16T11:29:54.771Z,99888.53
2022-08-16T11:32:31.985Z,99901.63
2022-08-16T11:35:14.819Z,99893.69
2022-08-16T11:40:38.916Z,99896.94
2022-08-16T11:43:10.242Z,99888.41
2022-08-16T11:45:38.812Z,99875.81
2022-08-16T11:48:12.390Z,99876.44
2022-08-16T11:50:40.815Z,99879.47
2022-08-16T11:53:09.628Z,99874.31
2022-08-16T11:55:39.223Z,99868.31
2022-08-16T11:58:14.382Z,99869.84
2022-08-16T12:00:51.148Z,99877.91
2022-08-16T12:03:34.868Z,99874.53
2022-08-16T12:06:11.231Z,99878.66
2022-08-16T12:08:55.658Z,99861.19
2022-08-16T12:11:23.731Z,99854.78
2022-08-16T12:13:54.790Z,99845.69
2022-08-16T12:16:24.553Z,99844.66
2022-08-16T12:19:00.945Z,99848.94
2022-08-16T12:21:35.984Z,99829.88
2022-08-16T12:24:17.109Z,99839.75
2022-08-16T12:26:45.638Z,99842.53
2022-08-16T12:29:13.870Z,99841.47
2022-08-16T12:32:00.750Z,99847.41
2022-08-16T12:34:32.607Z,99848.94
2022-08-16T12:37:10.376Z,99843.81
2022-08-16T12:39:47.056Z,99837.38
2022-08-16T12:42:20.868Z,99838.22
2022-08-16T12:44:53.159Z,99839.59
2022-08-16T12:47:38.634Z,99831.78
2022-08-16T12:50:10.450Z,99835.56
2022-08-16T12:52:44.451Z,99836.66
2022-08-16T12:55:22.140Z,99833.16
2022-08-16T12:57:58.739Z,99833.91
2022-08-16T13:00:33.570Z,99826.81
2022-08-16T13:03:03.450Z,99826.81
2022-08-16T13:05:47.714Z,99833.59
2022-08-16T13:08:27.454Z,99827.25
2022-08-16T13:10:59.853Z,99833.22
2022-08-16T13:13:29.600Z,99829.16
2022-08-16T13:16:03.679Z,99830.47
2022-08-16T13:18:35.762Z,99830.75
2022-08-16T13:21:07.073Z,99827.78
2022-08-16T13:23:36.898Z,99823.41
2022-08-16T13:26:12.854Z,99839.47
2022-08-16T13:28:47.767Z,99836.44
2022-08-16T13:31:16.920Z,99832.63
2022-08-16T13:33:45.408Z,99841.41
2022-08-16T13:36:38.751Z,99838.31
2022-08-16T13:39:05.318Z,99836.91
2022-08-16T13:41:33.494Z,99843.41
2022-08-16T13:44:04.172Z,99836.69
2022-08-16T13:46:37.857Z,99835.47
2022-08-16T13:49:07.003Z,99833.94
2022-08-16T13:51:36.401Z,99833.66
2022-08-16T13:54:07.841Z,99835.50
2022-08-16T13:56:39.712Z,99829.50
2022-08-16T13:59:19.623Z,99831.19
2022-08-16T14:01:55.096Z,99822.72
2022-08-16T14:04:26.356Z,99820.28
2022-08-16T14:06:57.190Z,99821.25
2022-08-16T14:09:27.065Z,99821.78
2022-08-16T14:11:56.037Z,99822.75
2022-08-16T14:14:28.598Z,99816.88
2022-08-16T14:16:57.525Z,99821.84
2022-08-16T14:19:26.525Z,99829.59
2022-08-16T14:22:14.908Z,99822.81
2022-08-16T14:24:47.131Z,99816.28
2022-08-16T14:27:17.121Z,99816.38
2022-08-16T14:29:45.727Z,99818.09
2022-08-16T14:32:27.034Z,99812.31
2022-08-16T14:35:03.182Z,99822.03
2022-08-16T14:37:33.749Z,99818.53
2022-08-16T14:40:03.354Z,99820.75
2022-08-16T14:42:31.888Z,99821.03
2022-08-16T14:45:00.741Z,99812.13
2022-08-16T14:47:34.390Z,99809.53
2022-08-16T14:50:03.223Z,99801.59
2022-08-16T14:52:54.766Z,99808.97
2022-08-16T14:55:24.252Z,99803.06
2022-08-16T14:57:52.853Z,99800.56
2022-08-16T15:00:32.804Z,99799.16
2022-08-16T15:03:04.515Z,99801.50
2022-08-16T15:05:32.949Z,99795.41
2022-08-16T15:08:02.462Z,99794.28
2022-08-16T15:10:32.265Z,99787.28
2022-08-16T15:13:01.457Z,99790.13
2022-08-16T15:15:31.354Z,99790.69
2022-08-16T15:18:01.610Z,99790.78
2022-08-16T15:20:35.322Z,99779.69
2022-08-16T15:23:08.477Z,99788.16
2022-08-16T15:25:41.455Z,99782.75
2022-08-16T15:28:30.654Z,99785.41
2022-08-16T15:31:00.843Z,99787.94
2022-08-16T15:33:32.484Z,99775.16
2022-08-16T15:36:00.823Z,99778.31
2022-08-16T15:38:57.694Z,99787.06
2022-08-16T15:41:48.904Z,99779.94
2022-08-16T15:44:22.214Z,99777.03
2022-08-16T15:46:55.492Z,99778.31
2022-08-16T15:49:37.231Z,99784.75
2022-08-16T15:52:14.965Z,99781.13
2022-08-16T15:54:53.546Z,99780.31
2022-08-16T15:57:25.173Z,99792.31
2022-08-16T15:59:56.450Z,99792.53
2022-08-16T16:02:33.524Z,99802.41
2022-08-16T16:05:04.505Z,99794.00
2022-08-16T16:07:35.338Z,99793.63
2022-08-16T16:10:12.966Z,99792.72
2022-08-16T16:12:52.964Z,99792.75
2022-08-16T16:15:24.457Z,99794.28
2022-08-16T16:17:53.140Z,99804.25
2022-08-16T16:20:27.268Z,99804.16
2022-08-16T16:22:57.815Z,99802.19
2022-08-16T16:25:29.264Z,99806.84
2022-08-16T16:27:59.492Z,99805.44
2022-08-16T16:30:37.875Z,99809.03
2022-08-16T16:33:15.726Z,99812.06
2022-08-16T16:35:55.458Z,99814.31
2022-08-16T16:38:30.950Z,99811.50
2022-08-16T16:41:02.217Z,99807.78
2022-08-16T16:43:31.925Z,99821.00
2022-08-16T16:46:02.176Z,99823.25
2022-08-16T16:48:34.833Z,99828.47
2022-08-16T16:51:09.546Z,99826.50
2022-08-16T16:53:39.505Z,99825.78
2022-08-16T16:56:19.673Z,99826.59
2022-08-16T16:59:01.733Z,99832.63
2022-08-16T17:01:56.880Z,99841.13
2022-08-16T17:04:31.786Z,99834.19
2022-08-16T17:07:01.752Z,99841.81
2022-08-16T17:09:30.942Z,99841.25
2022-08-16T17:12:00.593Z,99839.03
2022-08-16T17:14:32.777Z,99843.22
2022-08-16T17:17:08.695Z,99841.69
2022-08-16T17:19:41.022Z,99846.06
2022-08-16T17:22:14.676Z,99835.09
2022-08-16T17:24:50.221Z,99840.72
2022-08-16T17:27:32.597Z,99843.44
2022-08-16T17:30:01.827Z,99849.81
2022-08-16T17:32:33.575Z,99850.69
2022-08-16T17:35:18.489Z,99847.06
2022-08-16T17:37:51.588Z,99850.06
2022-08-16T17:40:25.517Z,99850.53
2022-08-16T17:43:11.344Z,99854.53
2022-08-16T17:45:40.319Z,99857.09
2022-08-16T17:48:08.715Z,99856.69
2022-08-16T17:50:37.106Z,99863.41
2022-08-16T17:53:06.342Z,99866.91
2022-08-16T17:55:36.844Z,99865.75
2022-08-16T17:58:20.124Z,99872.56
2022-08-16T18:00:56.075Z,99880.00
2022-08-16T18:04:02.865Z,99887.00
2022-08-16T18:06:16.842Z,99889.31
2022-08-16T18:08:48.859Z,99891.41
2022-08-16T18:11:26.023Z,99897.00
2022-08-16T18:13:55.803Z,99904.44
2022-08-16T18:16:25.767Z,99892.56
2022-08-16T18:18:54.145Z,99903.22
2022-08-16T18:21:40.061Z,99904.09
2022-08-16T18:24:08.686Z,99910.63
2022-08-16T18:26:37.392Z,99909.84
2022-08-16T18:29:05.645Z,99905.38
2022-08-16T18:31:35.598Z,99919.72
2022-08-16T18:34:03.779Z,99921.38
2022-08-16T18:36:33.459Z,99912.78
2022-08-16T18:39:02.053Z,99927.09
2022-08-16T18:41:30.694Z,99925.50
2022-08-16T18:44:26.773Z,99923.22
2022-08-16T18:46:50.733Z,99924.25
2022-08-16T18:49:19.846Z,99928.56
2022-08-16T18:51:48.294Z,99923.84
2022-08-16T18:54:19.317Z,99926.72
2022-08-16T18:56:56.207Z,99926.31
2022-08-16T18:59:28.304Z,99930.19
2022-08-16T19:02:00.274Z,99929.97
2022-08-16T19:04:55.963Z,99930.78
2022-08-16T19:07:21.217Z,99934.28
2022-08-16T19:09:49.259Z,99933.69
2022-08-16T19:12:17.259Z,99940.03
2022-08-16T19:15:07.897Z,99937.34
2022-08-16T19:17:41.399Z,99950.22
2022-08-16T19:20:11.347Z,99941.84
2022-08-16T19:23:02.029Z,99951.66
2022-08-16T19:25:47.593Z,99949.59
2022-08-16T19:28:49.687Z,99967.16
2022-08-16T19:31:12.324Z,99963.44
2022-08-16T19:33:54.098Z,99959.13
2022-08-16T19:36:31.194Z,99953.75
2022-08-16T19:39:04.880Z,99960.53
2022-08-16T19:41:35.377Z,99956.28
2022-08-16T19:44:04.407Z,99953.81
2022-08-16T19:46:32.430Z,99960.84
2022-08-16T19:49:02.087Z,99966.16
2022-08-16T19:51:30.337Z,99954.50
2022-08-16T19:53:58.378Z,99957.59
2022-08-16T19:56:27.010Z,99971.06
2022-08-16T19:59:18.135Z,99957.97
2022-08-16T20:01:44.947Z,99955.91
2022-08-16T20:04:14.689Z,99956.59
2022-08-16T20:06:43.176Z,99974.34
2022-08-16T20:09:15.625Z,99978.16
2022-08-16T20:11:45.437Z,99973.31
2022-08-16T20:14:24.028Z,99974.75
2022-08-16T20:16:56.194Z,99976.34
2022-08-16T20:19:27.531Z,99973.66
2022-08-16T20:21:57.377Z,99982.81
2022-08-16T20:24:35.325Z,99988.75
2022-08-16T20:27:05.038Z,99986.09
2022-08-16T20:29:33.053Z,99987.28
2022-08-16T20:32:01.168Z,99985.63
2022-08-16T20:34:30.611Z,99983.78
2022-08-16T20:36:58.704Z,99985.19
2022-08-16T20:39:26.861Z,99990.81
2022-08-16T20:41:55.175Z,99990.56
2022-08-16T20:44:25.393Z,99985.50
2022-08-16T20:46:53.682Z,99987.38
2022-08-16T20:49:21.704Z,99992.69
2022-08-16T20:51:55.839Z,99993.69
2022-08-16T20:54:26.018Z,99990.38
2022-08-16T20:56:54.151Z,99991.56
2022-08-16T20:59:22.196Z,99992.31
2022-08-16T21:01:50.892Z,99988.06
2022-08-16T21:04:20.285Z,99991.88
2022-08-16T21:06:53.426Z,99985.31
2022-08-16T21:09:26.408Z,99992.72
2022-08-16T21:11:56.035Z,99990.25
2022-08-16T21:14:24.175Z,99989.38
2022-08-16T21:16:52.518Z,99991.59
2022-08-16T21:19:21.053Z,99988.91
2022-08-16T21:21:49.678Z,99987.63
2022-08-16T21:24:17.777Z,99988.00
2022-08-16T21:26:55.106Z,99975.66
2022-08-16T21:29:24.957Z,99990.94
2022-08-16T21:31:54.220Z,99983.97
2022-08-16T21:34:22.259Z,99985.34
2022-08-16T21:36:50.250Z,99993.06
2022-08-16T21:39:18.287Z,99990.78
2022-08-16T21:41:47.698Z,99995.84
2022-08-16T21:44:15.756Z,99997.41
2022-08-16T21:46:43.777Z,100003.69
2022-08-16T21:49:11.978Z,99996.94
2022-08-16T21:51:39.947Z,99994.06
2022-08-16T21:54:07.989Z,99997.72
2022-08-16T21:56:36.102Z,99998.72
2022-08-16T21:59:10.984Z,99988.47
2022-08-16T22:01:41.546Z,99986.59
2022-08-16T22:04:37.948Z,99992.53
2022-08-16T22:06:58.816Z,99995.53
2022-08-16T22:09:26.907Z,99992.25
2022-08-16T22:11:54.943Z,99998.56
2022-08-16T22:14:24.398Z,99994.09
2022-08-16T22:16:52.571Z,99996.91
2022-08-16T22:19:23.967Z,99992.66
2022-08-16T22:21:52.350Z,100001.22
2022-08-16T22:24:20.404Z,99992.66
2022-08-16T22:26:48.404Z,99988.91
2022-08-16T22:29:16.425Z,99993.84
2022-08-16T22:31:45.828Z,100002.97
2022-08-16T22:34:14.821Z,99995.38
2022-08-16T22:36:43.305Z,99998.25
2022-08-16T22:39:13.787Z,100002.09
2022-08-16T22:41:45.620Z,100001.78
2022-08-16T22:44:14.045Z,100002.53
2022-08-16T22:46:42.530Z,99999.59
2022-08-16T22:49:13.128Z,100000.81
2022-08-16T22:51:41.536Z,99995.41
2022-08-16T22:54:43.949Z,100002.72
2022-08-16T22:56:59.025Z,99988.94
2022-08-16T22:59:28.700Z,99988.31
2022-08-16T23:01:56.783Z,99985.88
2022-08-16T23:04:26.528Z,99987.03
2022-08-16T23:06:54.670Z,99986.75
2022-08-16T23:09:23.663Z,99988.97
2022-08-16T23:11:52.013Z,99990.97
2022-08-16T23:14:20.165Z,99987.84
2022-08-16T23:16:48.278Z,99990.69
2022-08-16T23:19:17.889Z,99992.88
2022-08-16T23:21:49.482Z,99987.94
2022-08-16T23:24:19.498Z,100003.28
2022-08-16T23:26:49.320Z,100002.78
2022-08-16T23:29:23.900Z,99999.94
2022-08-16T23:31:56.254Z,99998.13
2022-08-16T23:34:24.639Z,99998.97
2022-08-16T23:36:54.105Z,100004.59
2022-08-16T23:39:22.192Z,99998.66
2022-08-16T23:41:50.216Z,100003.94
2022-08-16T23:44:44.095Z,100000.69
2022-08-16T23:47:07.449Z,99989.16
2022-08-16T23:49:59.216Z,99995.28
2022-08-16T23:52:45.285Z,99996.66
2022-08-16T23:55:13.098Z,100001.22
2022-08-16T23:57:41.117Z,99999.41
